KTHV/THV METAR and TAF weather

Enter ICAO airport designator
Station Type Date Time Source
KTHV METAR 2021/09/25 02:53 UTC NOAA

KTHV 250253Z AUTO 00000KT 10SM CLR 11/09 A3009 RMK AO2 SLP189 T01060089 51005


Station Type Date Time Source
KTHV Decoded METAR 2021/09/25 02:53 UTC NOAA

YORK AIRPORT, PA, United States (KTHV) 39-55N 076-53W 144M
Sep 24, 2021 - 10:53 PM EDT / 2021.09.25 0253 UTC
Wind: Calm:0
Visibility: 10 mile(s):0
Sky conditions: clear
Temperature: 51.1 F (10.6 C)
Dew Point: 48.0 F (8.9 C)
Relative Humidity: 89%
Pressure (altimeter): 30.09 in. Hg (1018 hPa)
Pressure tendency: 0.01 inches (0.5 hPa) higher than three hours ago
ob: KTHV 250253Z AUTO 00000KT 10SM CLR 11/09 A3009 RMK AO2 SLP189 T01060089 51005
cycle: 3

Station Type Date Time Source
KTHV TAF UTC NOAA

Error!

Example: see airport list